createdAt,value
2022-12-14T00:03:39.643Z,-2.70
2022-12-14T00:07:41.247Z,-2.70
2022-12-14T00:11:42.792Z,-2.60
2022-12-14T00:15:46.691Z,-2.70
2022-12-14T00:19:48.932Z,-2.60
2022-12-14T00:23:51.422Z,-2.60
2022-12-14T00:27:53.011Z,-2.60
2022-12-14T00:31:54.520Z,-2.80
2022-12-14T00:35:56.090Z,-2.90
2022-12-14T00:39:57.604Z,-2.90
2022-12-14T00:43:59.120Z,-2.80
2022-12-14T00:48:02.166Z,-2.80
2022-12-14T00:52:03.694Z,-2.90
2022-12-14T00:56:06.582Z,-2.80
2022-12-14T01:00:08.398Z,-3.00
2022-12-14T01:04:19.535Z,-2.90
2022-12-14T01:08:21.459Z,-2.90
2022-12-14T01:16:32.059Z,-3.00
2022-12-14T01:20:34.055Z,-3.00
2022-12-14T01:24:35.886Z,-3.00
2022-12-14T01:28:37.539Z,-3.00
2022-12-14T01:32:39.211Z,-3.00
2022-12-14T01:36:40.779Z,-3.00
2022-12-14T01:40:42.378Z,-3.00
2022-12-14T01:44:44.162Z,-3.00
2022-12-14T01:48:46.040Z,-3.00
2022-12-14T01:52:49.386Z,-3.00
2022-12-14T01:56:51.200Z,-3.10
2022-12-14T02:00:54.359Z,-3.00
2022-12-14T02:04:58.043Z,-3.00
2022-12-14T02:08:59.617Z,-3.00
2022-12-14T02:13:06.991Z,-3.00
2022-12-14T02:17:10.845Z,-3.00
2022-12-14T02:21:15.436Z,-3.20
2022-12-14T02:25:16.994Z,-3.10
2022-12-14T02:29:24.634Z,-3.10
2022-12-14T02:33:35.403Z,-3.20
2022-12-14T02:37:36.949Z,-3.30
2022-12-14T02:41:51.214Z,-3.20
2022-12-14T02:46:03.560Z,-3.00
2022-12-14T02:50:16.375Z,-3.10
2022-12-14T02:54:25.991Z,-3.00
2022-12-14T02:58:33.945Z,-3.10
2022-12-14T03:02:37.357Z,-2.90
2022-12-14T03:06:39.189Z,-3.00
2022-12-14T03:10:47.492Z,-3.00
2022-12-14T03:14:51.779Z,-3.20
2022-12-14T03:18:53.397Z,-3.00
2022-12-14T03:23:00.964Z,-3.00
2022-12-14T03:27:06.137Z,-2.90
2022-12-14T03:31:11.920Z,-2.80
2022-12-14T03:35:13.482Z,-2.70
2022-12-14T03:39:19.087Z,-2.80
2022-12-14T03:43:30.970Z,-2.80
2022-12-14T03:47:32.624Z,-2.70
2022-12-14T03:51:37.903Z,-2.70
2022-12-14T03:55:54.884Z,-2.80
2022-12-14T04:00:13.898Z,-2.70
2022-12-14T04:04:17.528Z,-2.60
2022-12-14T04:08:22.779Z,-2.70
2022-12-14T04:12:54.793Z,-2.60
2022-12-14T04:17:16.340Z,-2.60
2022-12-14T04:21:36.138Z,-2.60
2022-12-14T04:25:58.518Z,-2.70
2022-12-14T04:30:01.206Z,-2.70
2022-12-14T04:34:04.369Z,-2.60
2022-12-14T04:38:05.927Z,-2.60
2022-12-14T04:42:08.706Z,-2.50
2022-12-14T04:46:28.069Z,-2.50
2022-12-14T04:55:36.747Z,-2.40
2022-12-14T04:59:38.366Z,-2.40
2022-12-14T05:03:54.339Z,-2.40
2022-12-14T05:08:02.137Z,-2.30
2022-12-14T05:12:16.886Z,-2.20
2022-12-14T05:16:19.905Z,-2.20
2022-12-14T05:20:23.304Z,-2.30
2022-12-14T05:24:26.816Z,-2.20
2022-12-14T05:28:28.353Z,-2.20
2022-12-14T05:32:30.041Z,-2.20
2022-12-14T05:36:31.644Z,-2.10
2022-12-14T05:45:36.644Z,-2.10
2022-12-14T05:49:38.322Z,-2.00
2022-12-14T05:53:40.148Z,-2.00
2022-12-14T05:57:41.720Z,-1.90
2022-12-14T06:01:44.182Z,-1.80
2022-12-14T06:05:45.854Z,-2.00
2022-12-14T06:09:47.467Z,-1.90
2022-12-14T06:13:49.302Z,-2.00
2022-12-14T06:17:51.043Z,-2.20
2022-12-14T06:21:52.636Z,-2.10
2022-12-14T06:25:55.466Z,-2.10
2022-12-14T06:29:57.496Z,-2.10
2022-12-14T06:34:00.081Z,-2.40
2022-12-14T06:38:01.801Z,-2.40
2022-12-14T06:47:06.576Z,-2.50
2022-12-14T06:51:08.395Z,-2.50
2022-12-14T06:55:09.995Z,-2.60
2022-12-14T06:59:11.902Z,-2.80
2022-12-14T07:03:13.583Z,-2.70
2022-12-14T07:07:15.260Z,-2.70
2022-12-14T07:11:17.553Z,-2.50
2022-12-14T07:15:44.680Z,-2.40
2022-12-14T07:19:49.143Z,-2.30
2022-12-14T07:23:52.954Z,-2.20
2022-12-14T07:27:54.639Z,-2.20
2022-12-14T07:32:00.378Z,-2.20
2022-12-14T07:36:03.442Z,-2.10
2022-12-14T07:40:05.563Z,-2.20
2022-12-14T07:44:08.472Z,-2.10
2022-12-14T07:48:10.418Z,-2.00
2022-12-14T07:52:12.047Z,-2.10
2022-12-14T07:56:14.937Z,-2.10
2022-12-14T08:00:17.012Z,-2.00
2022-12-14T08:04:19.726Z,-1.90
2022-12-14T08:08:21.480Z,-1.90
2022-12-14T08:12:23.148Z,-1.90
2022-12-14T08:16:25.258Z,-1.80
2022-12-14T08:20:26.964Z,-1.90
2022-12-14T08:24:28.556Z,-1.90
2022-12-14T08:28:30.929Z,-1.90
2022-12-14T08:32:34.466Z,-1.80
2022-12-14T08:36:36.326Z,-1.80
2022-12-14T08:40:38.578Z,-1.70
2022-12-14T08:44:40.197Z,-1.80
2022-12-14T08:48:41.885Z,-1.60
2022-12-14T08:52:46.289Z,-1.60
2022-12-14T08:56:47.970Z,-1.60
2022-12-14T09:00:58.247Z,-1.50
2022-12-14T09:05:05.619Z,-1.50
2022-12-14T09:09:13.640Z,-1.50
2022-12-14T09:13:18.184Z,-1.40
2022-12-14T09:17:20.821Z,-1.30
2022-12-14T09:21:25.122Z,-1.30
2022-12-14T09:25:27.706Z,-1.20
2022-12-14T09:29:29.470Z,-1.20
2022-12-14T09:33:32.438Z,-1.20
2022-12-14T09:37:34.598Z,-1.00
2022-12-14T09:41:38.893Z,-0.90
2022-12-14T09:45:45.924Z,-0.80
2022-12-14T09:49:53.787Z,-0.70
2022-12-14T09:54:02.603Z,-0.60
2022-12-14T09:58:06.516Z,-0.60
2022-12-14T10:02:33.126Z,-0.50
2022-12-14T10:06:35.323Z,-0.40
2022-12-14T10:25:06.603Z,-0.50
2022-12-14T10:29:28.411Z,-0.30
2022-12-14T10:33:30.923Z,-0.20
2022-12-14T10:37:34.891Z,-0.10
2022-12-14T10:41:39.615Z,0.20
2022-12-14T10:45:48.543Z,0.30
2022-12-14T10:49:56.330Z,0.40
2022-12-14T10:54:06.946Z,0.60
2022-12-14T10:58:10.672Z,0.70
2022-12-14T11:02:17.323Z,0.60
2022-12-14T11:06:19.739Z,0.50
2022-12-14T11:10:23.273Z,0.50
2022-12-14T11:14:25.336Z,0.70
2022-12-14T11:18:31.384Z,0.50
2022-12-14T11:23:02.897Z,0.60
2022-12-14T11:27:06.156Z,0.40
2022-12-14T11:31:13.023Z,0.50
2022-12-14T11:35:16.220Z,0.40
2022-12-14T11:39:17.757Z,0.40
2022-12-14T11:43:30.238Z,0.50
2022-12-14T11:47:31.836Z,0.60
2022-12-14T11:51:33.579Z,0.50
2022-12-14T11:55:41.193Z,0.50
2022-12-14T11:59:46.756Z,0.30
2022-12-14T12:03:49.678Z,0.40
2022-12-14T12:07:53.072Z,0.40
2022-12-14T12:11:54.852Z,0.40
2022-12-14T12:16:00.423Z,0.30
2022-12-14T12:38:40.033Z,0.20
2022-12-14T12:42:47.739Z,0.00
2022-12-14T12:47:23.065Z,0.10
2022-12-14T12:51:25.386Z,0.00
2022-12-14T12:55:28.658Z,0.00
2022-12-14T12:59:30.193Z,0.00
2022-12-14T13:03:32.377Z,0.10
2022-12-14T13:07:37.119Z,0.10
2022-12-14T13:11:39.577Z,0.20
2022-12-14T13:15:43.444Z,0.20
2022-12-14T13:19:51.895Z,0.00
2022-12-14T13:23:54.425Z,0.00
2022-12-14T13:28:03.981Z,0.10
2022-12-14T13:32:14.192Z,-0.30
2022-12-14T13:36:21.766Z,-0.30
2022-12-14T13:40:29.936Z,-0.10
2022-12-14T13:44:40.027Z,-0.10
2022-12-14T13:48:44.278Z,-0.10
2022-12-14T13:52:47.806Z,-0.20
2022-12-14T13:56:49.867Z,-0.20
2022-12-14T14:00:54.616Z,-0.10
2022-12-14T14:05:14.600Z,-0.30
2022-12-14T14:09:28.535Z,-0.30
2022-12-14T14:13:30.060Z,-0.20
2022-12-14T14:17:39.918Z,-0.20
2022-12-14T14:22:22.362Z,-0.30
2022-12-14T14:26:27.589Z,-0.10
2022-12-14T14:30:35.607Z,0.00
2022-12-14T14:34:44.766Z,-0.10
2022-12-14T14:38:46.922Z,-0.10
2022-12-14T14:42:51.481Z,0.00
2022-12-14T14:46:53.248Z,-0.10
2022-12-14T14:51:21.020Z,0.00
2022-12-14T14:55:51.908Z,-0.30
2022-12-14T14:59:53.969Z,-0.20
2022-12-14T15:03:57.677Z,-0.40
2022-12-14T15:07:59.419Z,-0.50
2022-12-14T15:12:04.143Z,-0.50
2022-12-14T15:16:19.764Z,-0.50
2022-12-14T15:24:50.956Z,-0.60
2022-12-14T15:28:58.101Z,-0.50
2022-12-14T17:35:32.898Z,-1.50
2022-12-14T17:39:35.622Z,-1.50
2022-12-14T17:43:37.266Z,-1.60
2022-12-14T17:47:38.812Z,-1.70
2022-12-14T17:51:42.115Z,-1.60
2022-12-14T17:55:43.773Z,-1.70
2022-12-14T17:59:47.641Z,-1.70
2022-12-14T18:03:50.676Z,-1.60
2022-12-14T18:07:52.294Z,-1.80
2022-12-14T18:12:22.297Z,-1.90
2022-12-14T18:16:17.129Z,-2.00
2022-12-14T18:20:21.675Z,-2.20
2022-12-14T18:24:26.075Z,-2.30
2022-12-14T18:28:28.005Z,-2.60
2022-12-14T18:32:29.593Z,-2.70
2022-12-14T18:36:31.275Z,-2.70
2022-12-14T18:40:32.868Z,-2.70
2022-12-14T18:44:34.449Z,-2.70
2022-12-14T18:48:36.181Z,-2.70
2022-12-14T18:52:38.236Z,-2.70
2022-12-14T18:56:42.052Z,-2.90
2022-12-14T19:00:43.914Z,-3.00
2022-12-14T19:09:16.957Z,-3.10
2022-12-14T19:13:25.303Z,-3.00
2022-12-14T19:17:27.774Z,-3.20
2022-12-14T19:21:31.041Z,-3.30
2022-12-14T19:25:32.680Z,-3.30
2022-12-14T19:29:35.458Z,-3.30
2022-12-14T19:33:37.357Z,-3.30
2022-12-14T19:37:38.909Z,-3.30
2022-12-14T19:41:40.652Z,-3.20
2022-12-14T19:45:42.466Z,-3.30
2022-12-14T19:49:43.994Z,-3.30
2022-12-14T19:53:47.245Z,-3.40
2022-12-14T19:57:48.807Z,-3.30
2022-12-14T20:01:50.450Z,-3.50
2022-12-14T20:50:13.504Z,-3.80
2022-12-14T20:54:16.182Z,-3.80
2022-12-14T20:58:18.201Z,-3.90
2022-12-14T21:02:21.012Z,-3.80
2022-12-14T21:06:23.240Z,-3.90
2022-12-14T21:10:24.844Z,-3.80
2022-12-14T21:14:28.324Z,-4.00
2022-12-14T21:18:29.929Z,-3.90
2022-12-14T21:22:31.858Z,-4.00
2022-12-14T21:26:33.586Z,-4.00
2022-12-14T21:30:35.124Z,-4.00
2022-12-14T21:34:36.727Z,-4.20
2022-12-14T21:38:38.402Z,-4.10
2022-12-14T21:42:39.943Z,-4.20
2022-12-14T21:46:41.542Z,-4.10
2022-12-14T21:50:45.225Z,-4.00
2022-12-14T21:54:46.773Z,-4.10
2022-12-14T21:58:52.994Z,-4.10
2022-12-14T22:02:55.821Z,-4.00
2022-12-14T22:06:57.999Z,-4.00
2022-12-14T22:11:03.143Z,-4.10
2022-12-14T22:15:04.838Z,-4.30
2022-12-14T22:19:06.512Z,-4.40
2022-12-14T22:23:08.041Z,-4.30
2022-12-14T22:27:10.540Z,-4.40
2022-12-14T22:31:12.044Z,-4.40
2022-12-14T22:35:13.596Z,-4.30
2022-12-14T22:39:15.478Z,-4.30
2022-12-14T22:43:17.214Z,-4.40
2022-12-14T22:47:18.804Z,-4.40
2022-12-14T22:51:20.975Z,-4.50
2022-12-14T22:55:23.740Z,-4.40
2022-12-14T22:59:28.675Z,-4.50
2022-12-14T23:03:30.787Z,-4.50
2022-12-14T23:07:32.756Z,-4.60
2022-12-14T23:11:52.980Z,-4.60
2022-12-14T23:16:13.088Z,-4.60
2022-12-14T23:20:33.403Z,-4.60
2022-12-14T23:24:53.368Z,-4.60
2022-12-14T23:29:13.397Z,-4.70
2022-12-14T23:33:33.831Z,-4.70
2022-12-14T23:37:54.441Z,-4.70
2022-12-14T23:42:17.667Z,-4.80
2022-12-14T23:46:37.873Z,-4.80
2022-12-14T23:50:58.156Z,-4.80
2022-12-14T23:55:18.179Z,-5.00
2022-12-14T23:59:38.214Z,-5.00
